sensor_id;sensor_type;location;lat;lon;timestamp;pressure;altitude;pressure_sealevel;temperature;humidity
49342;BME280;35210;41.606;-87.602;2023-04-02T00:00:31;99657.22;;;7.25;61.39
49342;BME280;35210;41.606;-87.602;2023-04-02T00:03:01;99659.19;;;7.22;63.10
49342;BME280;35210;41.606;-87.602;2023-04-02T00:05:41;99667.16;;;7.20;65.13
49342;BME280;35210;41.606;-87.602;2023-04-02T00:08:26;99664.13;;;7.12;65.02
49342;BME280;35210;41.606;-87.602;2023-04-02T00:10:57;99661.88;;;7.06;65.87
49342;BME280;35210;41.606;-87.602;2023-04-02T00:13:32;99674.78;;;6.95;66.51
49342;BME280;35210;41.606;-87.602;2023-04-02T00:16:04;99680.97;;;6.94;66.62
49342;BME280;35210;41.606;-87.602;2023-04-02T00:18:36;99676.81;;;6.90;67.47
49342;BME280;35210;41.606;-87.602;2023-04-02T00:21:11;99669.78;;;6.90;67.80
49342;BME280;35210;41.606;-87.602;2023-04-02T00:23:41;99689.00;;;6.91;67.63
49342;BME280;35210;41.606;-87.602;2023-04-02T00:26:28;99678.41;;;6.92;67.96
49342;BME280;35210;41.606;-87.602;2023-04-02T00:28:57;99675.63;;;6.96;67.65
49342;BME280;35210;41.606;-87.602;2023-04-02T00:31:27;99694.84;;;6.96;67.84
49342;BME280;35210;41.606;-87.602;2023-04-02T00:33:56;99686.97;;;6.96;67.02
49342;BME280;35210;41.606;-87.602;2023-04-02T00:36:27;99698.22;;;6.98;67.28
49342;BME280;35210;41.606;-87.602;2023-04-02T00:39:00;99696.63;;;6.96;67.78
49342;BME280;35210;41.606;-87.602;2023-04-02T00:41:31;99707.78;;;6.99;68.16
49342;BME280;35210;41.606;-87.602;2023-04-02T00:44:01;99710.25;;;7.02;67.62
49342;BME280;35210;41.606;-87.602;2023-04-02T00:46:38;99706.59;;;7.05;66.46
49342;BME280;35210;41.606;-87.602;2023-04-02T00:49:19;99716.91;;;7.08;66.88
49342;BME280;35210;41.606;-87.602;2023-04-02T00:51:52;99722.16;;;7.08;66.83
49342;BME280;35210;41.606;-87.602;2023-04-02T00:54:22;99732.13;;;7.17;65.85
49342;BME280;35210;41.606;-87.602;2023-04-02T00:56:53;99730.34;;;7.17;65.16
49342;BME280;35210;41.606;-87.602;2023-04-02T00:59:26;99743.25;;;7.06;66.57
49342;BME280;35210;41.606;-87.602;2023-04-02T01:02:02;99751.13;;;7.06;67.30
49342;BME280;35210;41.606;-87.602;2023-04-02T01:04:52;99760.72;;;7.07;67.02
49342;BME280;35210;41.606;-87.602;2023-04-02T01:07:30;99758.75;;;7.11;67.12
49342;BME280;35210;41.606;-87.602;2023-04-02T01:10:17;99753.50;;;7.11;67.35
49342;BME280;35210;41.606;-87.602;2023-04-02T01:12:59;99764.19;;;7.08;67.29
49342;BME280;35210;41.606;-87.602;2023-04-02T01:15:36;99780.78;;;7.08;67.73
49342;BME280;35210;41.606;-87.602;2023-04-02T01:18:22;99787.28;;;7.17;67.83
49342;BME280;35210;41.606;-87.602;2023-04-02T01:21:06;99789.56;;;7.23;67.04
49342;BME280;35210;41.606;-87.602;2023-04-02T01:23:47;99791.44;;;7.21;66.66
49342;BME280;35210;41.606;-87.602;2023-04-02T01:26:32;99800.34;;;7.18;67.26
49342;BME280;35210;41.606;-87.602;2023-04-02T01:29:09;99799.50;;;7.18;66.63
49342;BME280;35210;41.606;-87.602;2023-04-02T01:31:39;99804.31;;;7.25;65.21
49342;BME280;35210;41.606;-87.602;2023-04-02T01:34:12;99809.91;;;7.19;65.44
49342;BME280;35210;41.606;-87.602;2023-04-02T01:36:50;99804.66;;;7.19;65.27
49342;BME280;35210;41.606;-87.602;2023-04-02T01:39:30;99807.88;;;7.24;64.93
49342;BME280;35210;41.606;-87.602;2023-04-02T01:42:05;99808.03;;;7.21;65.62
49342;BME280;35210;41.606;-87.602;2023-04-02T01:44:41;99808.97;;;7.20;65.69
49342;BME280;35210;41.606;-87.602;2023-04-02T01:47:12;99801.84;;;7.22;65.88
49342;BME280;35210;41.606;-87.602;2023-04-02T01:49:42;99803.28;;;7.28;66.04
49342;BME280;35210;41.606;-87.602;2023-04-02T01:52:14;99801.59;;;7.27;66.00
49342;BME280;35210;41.606;-87.602;2023-04-02T01:54:44;99803.59;;;7.38;65.61
49342;BME280;35210;41.606;-87.602;2023-04-02T01:57:13;99790.63;;;7.35;64.66
49342;BME280;35210;41.606;-87.602;2023-04-02T01:59:44;99789.72;;;7.36;63.93
49342;BME280;35210;41.606;-87.602;2023-04-02T02:02:13;99793.28;;;7.35;64.27
49342;BME280;35210;41.606;-87.602;2023-04-02T02:04:43;99813.34;;;7.36;64.23
49342;BME280;35210;41.606;-87.602;2023-04-02T02:07:15;99811.38;;;7.39;64.97
49342;BME280;35210;41.606;-87.602;2023-04-02T02:09:44;99818.97;;;7.44;65.14
49342;BME280;35210;41.606;-87.602;2023-04-02T02:12:13;99824.16;;;7.45;65.02
49342;BME280;35210;41.606;-87.602;2023-04-02T02:14:47;99835.22;;;7.50;64.85
49342;BME280;35210;41.606;-87.602;2023-04-02T02:17:20;99840.03;;;7.58;64.44
49342;BME280;35210;41.606;-87.602;2023-04-02T02:19:53;99845.47;;;7.55;64.48
49342;BME280;35210;41.606;-87.602;2023-04-02T02:22:28;99849.63;;;7.59;64.10
49342;BME280;35210;41.606;-87.602;2023-04-02T02:24:59;99856.75;;;7.57;63.47
49342;BME280;35210;41.606;-87.602;2023-04-02T02:27:53;99871.66;;;7.56;63.09
49342;BME280;35210;41.606;-87.602;2023-04-02T02:30:31;99879.06;;;7.50;63.52
49342;BME280;35210;41.606;-87.602;2023-04-02T02:33:05;99877.53;;;7.46;63.43
49342;BME280;35210;41.606;-87.602;2023-04-02T02:35:39;99882.63;;;7.49;62.92
49342;BME280;35210;41.606;-87.602;2023-04-02T02:41:24;99892.66;;;7.42;63.58
49342;BME280;35210;41.606;-87.602;2023-04-02T02:44:03;99902.41;;;7.40;64.10
49342;BME280;35210;41.606;-87.602;2023-04-02T02:46:39;99910.91;;;7.30;64.88
49342;BME280;35210;41.606;-87.602;2023-04-02T02:49:14;99916.47;;;7.39;65.22
49342;BME280;35210;41.606;-87.602;2023-04-02T02:51:46;99919.38;;;7.35;65.34
49342;BME280;35210;41.606;-87.602;2023-04-02T02:54:16;99910.63;;;7.18;66.18
49342;BME280;35210;41.606;-87.602;2023-04-02T02:56:48;99906.31;;;7.02;67.03
49342;BME280;35210;41.606;-87.602;2023-04-02T02:59:19;99912.75;;;6.96;67.48
49342;BME280;35210;41.606;-87.602;2023-04-02T03:01:51;99916.81;;;6.86;67.88
49342;BME280;35210;41.606;-87.602;2023-04-02T03:04:21;99911.88;;;6.80;68.28
49342;BME280;35210;41.606;-87.602;2023-04-02T03:06:54;99908.31;;;6.81;68.25
49342;BME280;35210;41.606;-87.602;2023-04-02T03:09:32;99916.19;;;6.81;68.39
49342;BME280;35210;41.606;-87.602;2023-04-02T03:12:09;99916.13;;;6.82;68.32
49342;BME280;35210;41.606;-87.602;2023-04-02T03:14:55;99921.19;;;6.85;68.02
49342;BME280;35210;41.606;-87.602;2023-04-02T03:17:35;99921.88;;;6.89;67.84
49342;BME280;35210;41.606;-87.602;2023-04-02T03:20:11;99916.56;;;6.90;68.01
49342;BME280;35210;41.606;-87.602;2023-04-02T03:22:50;99911.06;;;6.95;67.66
49342;BME280;35210;41.606;-87.602;2023-04-02T03:25:27;99907.66;;;6.93;67.83
49342;BME280;35210;41.606;-87.602;2023-04-02T03:28:00;99899.03;;;6.91;67.80
49342;BME280;35210;41.606;-87.602;2023-04-02T03:30:37;99906.97;;;6.89;67.96
49342;BME280;35210;41.606;-87.602;2023-04-02T03:33:16;99901.91;;;6.86;67.90
49342;BME280;35210;41.606;-87.602;2023-04-02T03:35:52;99900.88;;;6.89;67.82
49342;BME280;35210;41.606;-87.602;2023-04-02T03:38:25;99901.66;;;6.91;67.87
49342;BME280;35210;41.606;-87.602;2023-04-02T03:41:00;99892.16;;;6.88;67.88
49342;BME280;35210;41.606;-87.602;2023-04-02T03:43:32;99888.84;;;6.85;67.56
49342;BME280;35210;41.606;-87.602;2023-04-02T03:46:18;99892.41;;;6.84;67.75
49342;BME280;35210;41.606;-87.602;2023-04-02T03:48:54;99891.72;;;6.80;68.02
49342;BME280;35210;41.606;-87.602;2023-04-02T03:51:28;99893.84;;;6.74;68.22
49342;BME280;35210;41.606;-87.602;2023-04-02T03:53:57;99889.69;;;6.70;68.10
49342;BME280;35210;41.606;-87.602;2023-04-02T03:56:29;99895.13;;;6.67;67.84
49342;BME280;35210;41.606;-87.602;2023-04-02T03:59:13;99899.69;;;6.63;68.08
49342;BME280;35210;41.606;-87.602;2023-04-02T04:01:51;99896.31;;;6.61;68.17
49342;BME280;35210;41.606;-87.602;2023-04-02T04:04:24;99902.72;;;6.55;68.15
49342;BME280;35210;41.606;-87.602;2023-04-02T04:06:55;99912.53;;;6.52;68.23
49342;BME280;35210;41.606;-87.602;2023-04-02T04:09:27;99906.44;;;6.51;68.71
49342;BME280;35210;41.606;-87.602;2023-04-02T04:12:07;99910.00;;;6.50;68.38
49342;BME280;35210;41.606;-87.602;2023-04-02T04:14:39;99918.78;;;6.49;68.50
49342;BME280;35210;41.606;-87.602;2023-04-02T04:17:14;99931.06;;;6.49;68.52
49342;BME280;35210;41.606;-87.602;2023-04-02T04:19:53;99935.38;;;6.50;69.00
49342;BME280;35210;41.606;-87.602;2023-04-02T04:22:26;99930.03;;;6.51;68.69
49342;BME280;35210;41.606;-87.602;2023-04-02T04:25:00;99931.97;;;6.48;69.01
49342;BME280;35210;41.606;-87.602;2023-04-02T04:27:32;99931.13;;;6.47;68.72
49342;BME280;35210;41.606;-87.602;2023-04-02T04:30:16;99929.44;;;6.46;68.53
49342;BME280;35210;41.606;-87.602;2023-04-02T04:32:51;99926.81;;;6.46;68.47
49342;BME280;35210;41.606;-87.602;2023-04-02T04:35:27;99936.53;;;6.44;68.28
49342;BME280;35210;41.606;-87.602;2023-04-02T04:37:58;99943.72;;;6.41;68.59
49342;BME280;35210;41.606;-87.602;2023-04-02T04:40:31;99953.38;;;6.40;68.83
49342;BME280;35210;41.606;-87.602;2023-04-02T04:43:03;99949.13;;;6.38;69.06
49342;BME280;35210;41.606;-87.602;2023-04-02T04:45:38;99945.81;;;6.34;69.26
49342;BME280;35210;41.606;-87.602;2023-04-02T04:48:12;99952.84;;;6.34;69.79
49342;BME280;35210;41.606;-87.602;2023-04-02T04:50:49;99945.97;;;6.31;69.79
49342;BME280;35210;41.606;-87.602;2023-04-02T04:53:22;99948.59;;;6.31;70.33
49342;BME280;35210;41.606;-87.602;2023-04-02T04:55:52;99950.38;;;6.31;70.03
49342;BME280;35210;41.606;-87.602;2023-04-02T04:58:23;99945.03;;;6.32;70.00
49342;BME280;35210;41.606;-87.602;2023-04-02T05:00:58;99940.81;;;6.30;69.49
49342;BME280;35210;41.606;-87.602;2023-04-02T05:03:31;99942.03;;;6.22;69.27
49342;BME280;35210;41.606;-87.602;2023-04-02T05:06:09;99937.81;;;6.20;69.47
49342;BME280;35210;41.606;-87.602;2023-04-02T05:08:42;99932.72;;;6.17;69.54
49342;BME280;35210;41.606;-87.602;2023-04-02T05:11:15;99941.50;;;6.16;69.78
49342;BME280;35210;41.606;-87.602;2023-04-02T05:13:50;99941.66;;;6.13;69.94
49342;BME280;35210;41.606;-87.602;2023-04-02T05:16:25;99942.81;;;6.07;69.85
49342;BME280;35210;41.606;-87.602;2023-04-02T05:19:00;99937.81;;;6.03;70.31
49342;BME280;35210;41.606;-87.602;2023-04-02T05:21:37;99941.56;;;5.97;70.66
49342;BME280;35210;41.606;-87.602;2023-04-02T05:24:32;99938.19;;;5.95;70.73
49342;BME280;35210;41.606;-87.602;2023-04-02T05:27:12;99941.84;;;5.92;71.23
49342;BME280;35210;41.606;-87.602;2023-04-02T05:29:46;99948.00;;;5.91;71.47
49342;BME280;35210;41.606;-87.602;2023-04-02T05:32:19;99940.06;;;5.93;71.05
49342;BME280;35210;41.606;-87.602;2023-04-02T05:34:52;99936.75;;;5.89;71.29
49342;BME280;35210;41.606;-87.602;2023-04-02T05:37:25;99927.31;;;5.85;71.24
49342;BME280;35210;41.606;-87.602;2023-04-02T05:39:56;99930.22;;;5.79;71.77
49342;BME280;35210;41.606;-87.602;2023-04-02T05:42:27;99934.69;;;5.77;71.83
49342;BME280;35210;41.606;-87.602;2023-04-02T05:45:07;99942.72;;;5.74;72.13
49342;BME280;35210;41.606;-87.602;2023-04-02T05:47:44;99936.84;;;5.69;72.46
49342;BME280;35210;41.606;-87.602;2023-04-02T05:50:25;99937.84;;;5.67;72.50
49342;BME280;35210;41.606;-87.602;2023-04-02T05:53:02;99926.50;;;5.66;72.44
49342;BME280;35210;41.606;-87.602;2023-04-02T05:55:38;99924.03;;;5.63;72.06
49342;BME280;35210;41.606;-87.602;2023-04-02T05:58:16;99929.34;;;5.61;71.98
49342;BME280;35210;41.606;-87.602;2023-04-02T06:01:00;99928.66;;;5.58;71.54
49342;BME280;35210;41.606;-87.602;2023-04-02T06:03:39;99922.25;;;5.46;70.82
49342;BME280;35210;41.606;-87.602;2023-04-02T06:06:18;99917.38;;;5.39;71.61
49342;BME280;35210;41.606;-87.602;2023-04-02T06:08:55;99917.38;;;5.39;71.93
49342;BME280;35210;41.606;-87.602;2023-04-02T06:11:28;99918.44;;;5.35;72.16
49342;BME280;35210;41.606;-87.602;2023-04-02T06:13:58;99916.81;;;5.32;72.22
49342;BME280;35210;41.606;-87.602;2023-04-02T06:16:28;99922.28;;;5.27;71.93
49342;BME280;35210;41.606;-87.602;2023-04-02T06:18:59;99931.50;;;5.17;71.87
49342;BME280;35210;41.606;-87.602;2023-04-02T06:21:27;99936.75;;;5.17;72.93
49342;BME280;35210;41.606;-87.602;2023-04-02T06:23:59;99940.28;;;5.16;72.64
49342;BME280;35210;41.606;-87.602;2023-04-02T06:26:33;99944.66;;;5.16;72.72
49342;BME280;35210;41.606;-87.602;2023-04-02T06:29:06;99946.44;;;5.15;73.23
49342;BME280;35210;41.606;-87.602;2023-04-02T06:31:39;99949.28;;;5.11;73.24
49342;BME280;35210;41.606;-87.602;2023-04-02T06:34:14;99943.03;;;5.13;73.30
49342;BME280;35210;41.606;-87.602;2023-04-02T06:36:44;99943.03;;;5.13;72.89
49342;BME280;35210;41.606;-87.602;2023-04-02T06:39:17;99942.34;;;5.10;73.25
49342;BME280;35210;41.606;-87.602;2023-04-02T06:41:53;99938.94;;;5.08;73.45
49342;BME280;35210;41.606;-87.602;2023-04-02T06:44:23;99938.22;;;5.04;73.79
49342;BME280;35210;41.606;-87.602;2023-04-02T06:46:56;99936.53;;;5.03;72.97
49342;BME280;35210;41.606;-87.602;2023-04-02T06:49:33;99935.81;;;5.00;72.71
49342;BME280;35210;41.606;-87.602;2023-04-02T06:52:11;99935.34;;;4.91;73.12
49342;BME280;35210;41.606;-87.602;2023-04-02T06:54:43;99932.56;;;4.94;73.17
49342;BME280;35210;41.606;-87.602;2023-04-02T06:57:11;99922.09;;;4.94;73.02
49342;BME280;35210;41.606;-87.602;2023-04-02T06:59:40;99917.84;;;4.92;73.30
49342;BME280;35210;41.606;-87.602;2023-04-02T07:02:22;99923.22;;;4.89;73.66
49342;BME280;35210;41.606;-87.602;2023-04-02T07:04:55;99919.91;;;4.85;74.20
49342;BME280;35210;41.606;-87.602;2023-04-02T07:07:25;99917.38;;;4.84;75.03
49342;BME280;35210;41.606;-87.602;2023-04-02T07:09:55;99910.50;;;4.81;74.56
49342;BME280;35210;41.606;-87.602;2023-04-02T07:12:24;99921.09;;;4.78;75.23
49342;BME280;35210;41.606;-87.602;2023-04-02T07:14:52;99922.09;;;4.76;75.21
49342;BME280;35210;41.606;-87.602;2023-04-02T07:17:20;99909.28;;;4.70;75.21
49342;BME280;35210;41.606;-87.602;2023-04-02T07:19:49;99905.91;;;4.68;75.25
49342;BME280;35210;41.606;-87.602;2023-04-02T07:22:17;99912.97;;;4.66;75.22
49342;BME280;35210;41.606;-87.602;2023-04-02T07:24:46;99906.94;;;4.63;75.27
49342;BME280;35210;41.606;-87.602;2023-04-02T07:27:15;99914.28;;;4.55;73.60
49342;BME280;35210;41.606;-87.602;2023-04-02T07:29:43;99914.56;;;4.49;73.81
49342;BME280;35210;41.606;-87.602;2023-04-02T07:32:15;99915.00;;;4.40;75.14
49342;BME280;35210;41.606;-87.602;2023-04-02T07:34:44;99915.28;;;4.34;75.21
49342;BME280;35210;41.606;-87.602;2023-04-02T07:37:14;99920.38;;;4.37;75.51
49342;BME280;35210;41.606;-87.602;2023-04-02T07:39:42;99905.47;;;4.39;75.54
49342;BME280;35210;41.606;-87.602;2023-04-02T07:42:10;99907.03;;;4.43;75.23
49342;BME280;35210;41.606;-87.602;2023-04-02T07:44:39;99909.91;;;4.37;75.01
49342;BME280;35210;41.606;-87.602;2023-04-02T07:47:07;99908.28;;;4.35;75.25
49342;BME280;35210;41.606;-87.602;2023-04-02T07:49:36;99897.88;;;4.33;75.74
49342;BME280;35210;41.606;-87.602;2023-04-02T07:52:04;99908.47;;;4.30;75.72
49342;BME280;35210;41.606;-87.602;2023-04-02T07:54:32;99922.59;;;4.26;76.70
49342;BME280;35210;41.606;-87.602;2023-04-02T07:57:02;99932.53;;;4.18;76.26
49342;BME280;35210;41.606;-87.602;2023-04-02T07:59:31;99925.09;;;4.09;75.86
49342;BME280;35210;41.606;-87.602;2023-04-02T08:02:00;99930.56;;;4.03;76.31
49342;BME280;35210;41.606;-87.602;2023-04-02T08:04:29;99932.53;;;3.97;77.11
49342;BME280;35210;41.606;-87.602;2023-04-02T08:06:57;99939.56;;;3.95;77.41
49342;BME280;35210;41.606;-87.602;2023-04-02T08:09:26;99939.72;;;3.92;76.87
49342;BME280;35210;41.606;-87.602;2023-04-02T08:11:54;99950.41;;;3.86;77.29
49342;BME280;35210;41.606;-87.602;2023-04-02T08:14:22;99948.72;;;3.85;77.30
49342;BME280;35210;41.606;-87.602;2023-04-02T08:16:52;99934.66;;;3.88;78.03
49342;BME280;35210;41.606;-87.602;2023-04-02T08:19:22;99943.59;;;3.82;77.43
49342;BME280;35210;41.606;-87.602;2023-04-02T08:21:51;99942.16;;;3.75;78.31
49342;BME280;35210;41.606;-87.602;2023-04-02T08:24:19;99941.31;;;3.75;78.40
49342;BME280;35210;41.606;-87.602;2023-04-02T08:26:48;99944.84;;;3.74;78.86
49342;BME280;35210;41.606;-87.602;2023-04-02T08:29:18;99945.97;;;3.68;78.32
49342;BME280;35210;41.606;-87.602;2023-04-02T08:31:47;99948.63;;;3.67;79.17
49342;BME280;35210;41.606;-87.602;2023-04-02T08:34:16;99946.75;;;3.70;79.54
49342;BME280;35210;41.606;-87.602;2023-04-02T08:36:45;99940.47;;;3.74;79.80
49342;BME280;35210;41.606;-87.602;2023-04-02T08:39:13;99935.19;;;3.76;79.93
49342;BME280;35210;41.606;-87.602;2023-04-02T08:41:46;99938.63;;;3.76;79.63
49342;BME280;35210;41.606;-87.602;2023-04-02T08:44:37;99940.34;;;3.77;80.22
49342;BME280;35210;41.606;-87.602;2023-04-02T08:47:09;99938.69;;;3.75;79.76
49342;BME280;35210;41.606;-87.602;2023-04-02T08:49:43;99945.69;;;3.74;79.11
49342;BME280;35210;41.606;-87.602;2023-04-02T08:52:22;99937.06;;;3.72;79.23
49342;BME280;35210;41.606;-87.602;2023-04-02T08:54:50;99944.00;;;3.73;79.59
49342;BME280;35210;41.606;-87.602;2023-04-02T08:57:29;99942.28;;;3.72;79.60
49342;BME280;35210;41.606;-87.602;2023-04-02T09:00:06;99936.03;;;3.76;80.08
49342;BME280;35210;41.606;-87.602;2023-04-02T09:02:39;99941.13;;;3.79;79.79
49342;BME280;35210;41.606;-87.602;2023-04-02T09:05:16;99937.72;;;3.77;79.45
49342;BME280;35210;41.606;-87.602;2023-04-02T09:07:49;99936.94;;;3.75;79.61
49342;BME280;35210;41.606;-87.602;2023-04-02T09:10:18;99941.31;;;3.75;79.06
49342;BME280;35210;41.606;-87.602;2023-04-02T09:12:50;99933.81;;;3.67;79.10
49342;BME280;35210;41.606;-87.602;2023-04-02T09:15:24;99934.78;;;3.65;79.29
49342;BME280;35210;41.606;-87.602;2023-04-02T09:17:59;99937.34;;;3.66;78.94
49342;BME280;35210;41.606;-87.602;2023-04-02T09:20:31;99939.16;;;3.64;79.30
49342;BME280;35210;41.606;-87.602;2023-04-02T09:23:00;99933.09;;;3.63;79.63
49342;BME280;35210;41.606;-87.602;2023-04-02T09:25:30;99930.41;;;3.65;80.03
49342;BME280;35210;41.606;-87.602;2023-04-02T09:28:01;99921.81;;;3.63;79.92
49342;BME280;35210;41.606;-87.602;2023-04-02T09:30:44;99916.69;;;3.60;79.61
49342;BME280;35210;41.606;-87.602;2023-04-02T09:33:16;99921.06;;;3.59;79.33
49342;BME280;35210;41.606;-87.602;2023-04-02T09:35:54;99915.13;;;3.56;80.06
49342;BME280;35210;41.606;-87.602;2023-04-02T09:38:25;99912.50;;;3.56;80.34
49342;BME280;35210;41.606;-87.602;2023-04-02T09:40:59;99913.56;;;3.52;80.07
49342;BME280;35210;41.606;-87.602;2023-04-02T09:43:29;99912.69;;;3.51;80.21
49342;BME280;35210;41.606;-87.602;2023-04-02T09:46:00;99905.78;;;3.50;80.78
49342;BME280;35210;41.606;-87.602;2023-04-02T09:48:31;99910.16;;;3.50;80.22
49342;BME280;35210;41.606;-87.602;2023-04-02T09:51:12;99909.13;;;3.54;80.36
49342;BME280;35210;41.606;-87.602;2023-04-02T09:53:44;99902.13;;;3.54;80.62
49342;BME280;35210;41.606;-87.602;2023-04-02T09:56:16;99911.59;;;3.57;80.57
49342;BME280;35210;41.606;-87.602;2023-04-02T09:59:01;99914.41;;;3.52;80.11
49342;BME280;35210;41.606;-87.602;2023-04-02T10:01:31;99911.97;;;3.48;80.38
49342;BME280;35210;41.606;-87.602;2023-04-02T10:04:03;99919.94;;;3.45;79.83
49342;BME280;35210;41.606;-87.602;2023-04-02T10:06:33;99912.22;;;3.42;79.87
49342;BME280;35210;41.606;-87.602;2023-04-02T10:09:26;99916.66;;;3.40;80.73
49342;BME280;35210;41.606;-87.602;2023-04-02T10:11:56;99919.25;;;3.40;79.88
49342;BME280;35210;41.606;-87.602;2023-04-02T10:14:27;99915.81;;;3.39;80.27
49342;BME280;35210;41.606;-87.602;2023-04-02T10:17:00;99933.34;;;3.36;79.75
49342;BME280;35210;41.606;-87.602;2023-04-02T10:19:34;99933.53;;;3.31;79.83
49342;BME280;35210;41.606;-87.602;2023-04-02T10:22:09;99928.50;;;3.26;79.97
49342;BME280;35210;41.606;-87.602;2023-04-02T10:24:41;99935.41;;;3.27;80.21
49342;BME280;35210;41.606;-87.602;2023-04-02T10:27:18;99934.69;;;3.24;80.49
49342;BME280;35210;41.606;-87.602;2023-04-02T10:30:02;99944.25;;;3.23;80.04
49342;BME280;35210;41.606;-87.602;2023-04-02T10:32:38;99953.00;;;3.22;80.17
49342;BME280;35210;41.606;-87.602;2023-04-02T10:35:15;99951.53;;;3.15;80.35
49342;BME280;35210;41.606;-87.602;2023-04-02T10:38:13;99950.81;;;3.12;80.87
49342;BME280;35210;41.606;-87.602;2023-04-02T10:40:47;99953.25;;;3.16;80.86
49342;BME280;35210;41.606;-87.602;2023-04-02T10:43:42;99961.91;;;3.17;80.92
49342;BME280;35210;41.606;-87.602;2023-04-02T10:46:19;99951.53;;;3.15;79.93
49342;BME280;35210;41.606;-87.602;2023-04-02T10:48:56;99957.78;;;3.11;80.71
49342;BME280;35210;41.606;-87.602;2023-04-02T10:51:34;99954.38;;;3.09;80.35
49342;BME280;35210;41.606;-87.602;2023-04-02T10:54:19;99943.16;;;3.07;80.28
49342;BME280;35210;41.606;-87.602;2023-04-02T10:57:06;99949.22;;;3.08;81.07
49342;BME280;35210;41.606;-87.602;2023-04-02T10:59:40;99947.41;;;3.10;80.74
49342;BME280;35210;41.606;-87.602;2023-04-02T11:02:30;99949.91;;;3.13;79.82
49342;BME280;35210;41.606;-87.602;2023-04-02T11:05:06;99951.88;;;3.06;80.83
49342;BME280;35210;41.606;-87.602;2023-04-02T11:07:50;99958.69;;;3.10;80.50
49342;BME280;35210;41.606;-87.602;2023-04-02T11:10:20;99944.13;;;3.05;80.40
49342;BME280;35210;41.606;-87.602;2023-04-02T11:12:55;99939.03;;;3.02;80.98
49342;BME280;35210;41.606;-87.602;2023-04-02T11:15:25;99932.03;;;3.02;80.79
49342;BME280;35210;41.606;-87.602;2023-04-02T11:17:54;99928.59;;;3.02;81.22
49342;BME280;35210;41.606;-87.602;2023-04-02T11:20:47;99916.38;;;3.02;80.64
49342;BME280;35210;41.606;-87.602;2023-04-02T11:23:26;99918.34;;;2.97;80.90
49342;BME280;35210;41.606;-87.602;2023-04-02T11:29:18;99908.81;;;2.96;81.74
49342;BME280;35210;41.606;-87.602;2023-04-02T11:31:49;99905.31;;;2.97;81.35
49342;BME280;35210;41.606;-87.602;2023-04-02T11:37:34;99892.28;;;2.97;82.19
49342;BME280;35210;41.606;-87.602;2023-04-02T11:40:40;99900.72;;;3.02;81.32
49342;BME280;35210;41.606;-87.602;2023-04-02T11:43:49;99895.53;;;3.02;81.45
49342;BME280;35210;41.606;-87.602;2023-04-02T11:46:55;99890.41;;;2.99;81.50
49342;BME280;35210;41.606;-87.602;2023-04-02T11:49:57;99898.25;;;2.99;81.71
49342;BME280;35210;41.606;-87.602;2023-04-02T11:52:29;99893.03;;;2.99;81.73
49342;BME280;35210;41.606;-87.602;2023-04-02T11:55:26;99912.19;;;2.98;81.90
49342;BME280;35210;41.606;-87.602;2023-04-02T11:58:25;99907.25;;;2.92;82.11
49342;BME280;35210;41.606;-87.602;2023-04-02T12:04:37;99915.41;;;2.83;82.79
49342;BME280;35210;41.606;-87.602;2023-04-02T12:07:38;99911.84;;;2.85;83.07
49342;BME280;35210;41.606;-87.602;2023-04-02T12:10:19;99906.47;;;2.90;83.47
49342;BME280;35210;41.606;-87.602;2023-04-02T12:12:47;99915.06;;;2.92;82.74
49342;BME280;35210;41.606;-87.602;2023-04-02T12:15:37;99917.63;;;2.93;83.35
49342;BME280;35210;41.606;-87.602;2023-04-02T12:18:14;99912.34;;;2.95;82.72
49342;BME280;35210;41.606;-87.602;2023-04-02T12:20:49;99913.13;;;2.97;83.30
49342;BME280;35210;41.606;-87.602;2023-04-02T12:23:21;99906.06;;;2.99;82.96
49342;BME280;35210;41.606;-87.602;2023-04-02T12:25:56;99903.63;;;2.96;83.36
49342;BME280;35210;41.606;-87.602;2023-04-02T12:28:25;99901.59;;;3.03;82.75
49342;BME280;35210;41.606;-87.602;2023-04-02T12:31:04;99905.03;;;3.03;82.59
49342;BME280;35210;41.606;-87.602;2023-04-02T12:33:39;99915.47;;;3.03;82.59
49342;BME280;35210;41.606;-87.602;2023-04-02T12:36:18;99917.19;;;3.04;83.15
49342;BME280;35210;41.606;-87.602;2023-04-02T12:38:48;99924.47;;;2.96;83.10
49342;BME280;35210;41.606;-87.602;2023-04-02T12:41:22;99932.91;;;3.03;83.86
49342;BME280;35210;41.606;-87.602;2023-04-02T12:44:02;99938.06;;;3.04;84.02
49342;BME280;35210;41.606;-87.602;2023-04-02T12:46:33;99931.19;;;3.02;83.91
49342;BME280;35210;41.606;-87.602;2023-04-02T12:49:05;99936.25;;;3.06;83.99
49342;BME280;35210;41.606;-87.602;2023-04-02T12:51:37;99939.28;;;3.17;84.04
49342;BME280;35210;41.606;-87.602;2023-04-02T12:54:05;99938.50;;;3.15;84.47
49342;BME280;35210;41.606;-87.602;2023-04-02T12:56:40;99932.72;;;3.07;83.61
49342;BME280;35210;41.606;-87.602;2023-04-02T12:59:28;99927.09;;;3.18;84.51
49342;BME280;35210;41.606;-87.602;2023-04-02T13:01:57;99923.44;;;3.22;84.31
49342;BME280;35210;41.606;-87.602;2023-04-02T13:04:26;99917.94;;;3.29;84.13
49342;BME280;35210;41.606;-87.602;2023-04-02T13:06:57;99910.66;;;3.38;83.24
49342;BME280;35210;41.606;-87.602;2023-04-02T13:09:32;99909.78;;;3.37;83.43
49342;BME280;35210;41.606;-87.602;2023-04-02T13:12:01;99905.19;;;3.44;84.08
49342;BME280;35210;41.606;-87.602;2023-04-02T13:14:30;99892.91;;;3.46;85.27
49342;BME280;35210;41.606;-87.602;2023-04-02T13:16:58;99896.19;;;3.51;83.41
49342;BME280;35210;41.606;-87.602;2023-04-02T13:19:30;99897.25;;;3.67;83.32
49342;BME280;35210;41.606;-87.602;2023-04-02T13:22:01;99892.34;;;3.80;82.48
49342;BME280;35210;41.606;-87.602;2023-04-02T13:24:31;99887.53;;;3.91;81.16
49342;BME280;35210;41.606;-87.602;2023-04-02T13:27:01;99883.94;;;3.93;81.98
49342;BME280;35210;41.606;-87.602;2023-04-02T13:29:31;99887.13;;;4.00;81.23
49342;BME280;35210;41.606;-87.602;2023-04-02T13:32:00;99890.06;;;4.13;80.30
49342;BME280;35210;41.606;-87.602;2023-04-02T13:34:29;99885.41;;;4.19;79.66
49342;BME280;35210;41.606;-87.602;2023-04-02T13:37:01;99885.00;;;4.28;78.67
49342;BME280;35210;41.606;-87.602;2023-04-02T13:39:29;99876.06;;;4.34;79.86
49342;BME280;35210;41.606;-87.602;2023-04-02T13:41:58;99872.25;;;4.41;79.14